Iglesia, Argentina
Current Conditions -  °F | °C
As of 10:00 AM on Thursday 23 Oct 2014 (Local Time) from SCSE Reporting Station
Overcast Overcast  
Wind Chill: 55°   Ceiling: 800
Heat Index: 55°   Visibility: 5mi
Dew Point: 54°   Wind: 5mph
Humidity: 94%   Direction: 270°W
Pressure: 30.03"   Gusts: NA
Location:  30.17°S, 69.21°W
Report Text: SCSE 231300Z 27004KT 8000 SCT006 OVC008 13/12 Q1017
Loading
Personal Weather Stations






























Interactive Weather Map
Tropical Storm Tracking
New forecast layout! Learn more

10-Day Weather Forecast

Advertisements
Track Severe Weather on mobile